sensor_id;sensor_type;location;lat;lon;timestamp;temperature;humidity
25616;DHT22;13482;48.234;13.006;2024-02-15T00:00:04;10.10;70.90
25616;DHT22;13482;48.234;13.006;2024-02-15T00:02:33;10.10;71.10
25616;DHT22;13482;48.234;13.006;2024-02-15T00:05:00;10.10;70.90
25616;DHT22;13482;48.234;13.006;2024-02-15T00:07:28;10.10;70.90
25616;DHT22;13482;48.234;13.006;2024-02-15T00:09:55;10.10;71.00
25616;DHT22;13482;48.234;13.006;2024-02-15T00:12:23;10.10;70.90
25616;DHT22;13482;48.234;13.006;2024-02-15T00:14:50;10.10;70.90
25616;DHT22;13482;48.234;13.006;2024-02-15T00:17:18;10.10;70.90
25616;DHT22;13482;48.234;13.006;2024-02-15T00:19:46;10.10;70.90
25616;DHT22;13482;48.234;13.006;2024-02-15T00:22:13;10.10;70.90
25616;DHT22;13482;48.234;13.006;2024-02-15T00:24:41;10.10;70.80
25616;DHT22;13482;48.234;13.006;2024-02-15T00:27:12;10.10;70.90
25616;DHT22;13482;48.234;13.006;2024-02-15T00:29:40;10.10;70.90
25616;DHT22;13482;48.234;13.006;2024-02-15T00:32:08;10.10;71.00
25616;DHT22;13482;48.234;13.006;2024-02-15T00:34:39;10.10;70.90
25616;DHT22;13482;48.234;13.006;2024-02-15T00:37:07;10.10;71.40
25616;DHT22;13482;48.234;13.006;2024-02-15T00:39:35;10.10;70.60
25616;DHT22;13482;48.234;13.006;2024-02-15T00:42:03;10.10;70.80
25616;DHT22;13482;48.234;13.006;2024-02-15T00:44:31;10.10;70.90
25616;DHT22;13482;48.234;13.006;2024-02-15T00:47:02;10.10;70.90
25616;DHT22;13482;48.234;13.006;2024-02-15T00:49:30;10.10;71.00
25616;DHT22;13482;48.234;13.006;2024-02-15T00:51:58;10.10;70.90
25616;DHT22;13482;48.234;13.006;2024-02-15T00:54:25;10.10;71.00
25616;DHT22;13482;48.234;13.006;2024-02-15T00:56:53;10.10;71.00
25616;DHT22;13482;48.234;13.006;2024-02-15T00:59:20;10.00;71.00
25616;DHT22;13482;48.234;13.006;2024-02-15T01:01:48;10.00;71.10
25616;DHT22;13482;48.234;13.006;2024-02-15T01:04:16;10.00;71.10
25616;DHT22;13482;48.234;13.006;2024-02-15T01:06:43;10.00;71.20
25616;DHT22;13482;48.234;13.006;2024-02-15T01:09:12;10.00;71.30
25616;DHT22;13482;48.234;13.006;2024-02-15T01:11:40;10.00;71.40
25616;DHT22;13482;48.234;13.006;2024-02-15T01:14:07;10.00;71.40
25616;DHT22;13482;48.234;13.006;2024-02-15T01:16:37;9.90;71.40
25616;DHT22;13482;48.234;13.006;2024-02-15T01:19:04;9.90;71.40
25616;DHT22;13482;48.234;13.006;2024-02-15T01:21:32;9.90;71.40
25616;DHT22;13482;48.234;13.006;2024-02-15T01:24:00;9.90;71.30
25616;DHT22;13482;48.234;13.006;2024-02-15T01:26:28;9.90;71.40
25616;DHT22;13482;48.234;13.006;2024-02-15T01:28:56;9.90;71.40
25616;DHT22;13482;48.234;13.006;2024-02-15T01:31:23;9.90;71.40
25616;DHT22;13482;48.234;13.006;2024-02-15T01:33:51;9.90;71.40
25616;DHT22;13482;48.234;13.006;2024-02-15T01:36:19;9.90;71.50
25616;DHT22;13482;48.234;13.006;2024-02-15T01:38:47;9.80;71.50
25616;DHT22;13482;48.234;13.006;2024-02-15T01:41:14;9.80;71.50
25616;DHT22;13482;48.234;13.006;2024-02-15T01:43:45;9.80;71.60
25616;DHT22;13482;48.234;13.006;2024-02-15T01:46:15;9.80;71.60
25616;DHT22;13482;48.234;13.006;2024-02-15T01:48:43;9.80;71.60
25616;DHT22;13482;48.234;13.006;2024-02-15T01:51:14;9.80;71.60
25616;DHT22;13482;48.234;13.006;2024-02-15T01:53:43;9.80;71.60
25616;DHT22;13482;48.234;13.006;2024-02-15T01:56:13;9.70;71.60
25616;DHT22;13482;48.234;13.006;2024-02-15T01:58:43;9.70;71.60
25616;DHT22;13482;48.234;13.006;2024-02-15T02:01:13;9.70;71.60
25616;DHT22;13482;48.234;13.006;2024-02-15T02:03:43;9.70;71.60
25616;DHT22;13482;48.234;13.006;2024-02-15T02:06:11;9.70;71.70
25616;DHT22;13482;48.234;13.006;2024-02-15T02:08:41;9.70;71.70
25616;DHT22;13482;48.234;13.006;2024-02-15T02:11:09;9.70;71.60
25616;DHT22;13482;48.234;13.006;2024-02-15T02:13:37;9.60;71.60
25616;DHT22;13482;48.234;13.006;2024-02-15T02:16:24;9.60;71.60
25616;DHT22;13482;48.234;13.006;2024-02-15T02:18:56;9.70;71.80
25616;DHT22;13482;48.234;13.006;2024-02-15T02:21:26;9.60;71.50
25616;DHT22;13482;48.234;13.006;2024-02-15T02:23:58;9.60;71.60
25616;DHT22;13482;48.234;13.006;2024-02-15T02:26:26;9.60;71.70
25616;DHT22;13482;48.234;13.006;2024-02-15T02:28:53;9.60;71.70
25616;DHT22;13482;48.234;13.006;2024-02-15T02:31:21;9.60;71.70
25616;DHT22;13482;48.234;13.006;2024-02-15T02:33:51;9.60;71.70
25616;DHT22;13482;48.234;13.006;2024-02-15T02:36:20;9.60;71.70
25616;DHT22;13482;48.234;13.006;2024-02-15T02:38:48;9.60;71.70
25616;DHT22;13482;48.234;13.006;2024-02-15T02:41:19;9.60;71.70
25616;DHT22;13482;48.234;13.006;2024-02-15T02:43:46;9.60;71.70
25616;DHT22;13482;48.234;13.006;2024-02-15T02:46:14;9.60;71.70
25616;DHT22;13482;48.234;13.006;2024-02-15T02:48:42;9.50;71.70
25616;DHT22;13482;48.234;13.006;2024-02-15T02:51:10;9.50;71.70
25616;DHT22;13482;48.234;13.006;2024-02-15T02:53:37;9.50;71.70
25616;DHT22;13482;48.234;13.006;2024-02-15T02:56:05;9.50;71.70
25616;DHT22;13482;48.234;13.006;2024-02-15T02:58:35;9.50;71.60
25616;DHT22;13482;48.234;13.006;2024-02-15T03:01:03;9.50;71.70
25616;DHT22;13482;48.234;13.006;2024-02-15T03:03:31;9.50;71.70
25616;DHT22;13482;48.234;13.006;2024-02-15T03:05:58;9.50;71.70
25616;DHT22;13482;48.234;13.006;2024-02-15T03:08:26;9.40;71.70
25616;DHT22;13482;48.234;13.006;2024-02-15T03:10:54;9.40;71.70
25616;DHT22;13482;48.234;13.006;2024-02-15T03:13:22;9.40;71.70
25616;DHT22;13482;48.234;13.006;2024-02-15T03:15:50;9.40;71.70
25616;DHT22;13482;48.234;13.006;2024-02-15T03:18:18;9.40;71.70
25616;DHT22;13482;48.234;13.006;2024-02-15T03:20:45;9.40;71.70
25616;DHT22;13482;48.234;13.006;2024-02-15T03:23:13;9.30;71.70
25616;DHT22;13482;48.234;13.006;2024-02-15T03:25:40;9.30;71.70
25616;DHT22;13482;48.234;13.006;2024-02-15T03:28:08;9.20;71.70
25616;DHT22;13482;48.234;13.006;2024-02-15T03:30:35;9.20;71.80
25616;DHT22;13482;48.234;13.006;2024-02-15T03:33:03;9.20;71.80
25616;DHT22;13482;48.234;13.006;2024-02-15T03:35:34;9.10;71.80
25616;DHT22;13482;48.234;13.006;2024-02-15T03:38:02;9.10;71.90
25616;DHT22;13482;48.234;13.006;2024-02-15T03:40:30;9.10;71.90
25616;DHT22;13482;48.234;13.006;2024-02-15T03:42:59;9.10;71.90
25616;DHT22;13482;48.234;13.006;2024-02-15T03:45:27;9.10;71.90
25616;DHT22;13482;48.234;13.006;2024-02-15T03:47:55;9.10;72.00
25616;DHT22;13482;48.234;13.006;2024-02-15T03:50:25;9.00;72.00
25616;DHT22;13482;48.234;13.006;2024-02-15T03:52:53;9.00;72.00
25616;DHT22;13482;48.234;13.006;2024-02-15T03:55:21;9.00;72.00
25616;DHT22;13482;48.234;13.006;2024-02-15T03:57:49;9.00;72.00
25616;DHT22;13482;48.234;13.006;2024-02-15T04:00:17;9.00;72.00
25616;DHT22;13482;48.234;13.006;2024-02-15T04:02:49;9.00;72.10
25616;DHT22;13482;48.234;13.006;2024-02-15T04:05:17;9.00;72.10
25616;DHT22;13482;48.234;13.006;2024-02-15T04:07:46;8.90;72.20
25616;DHT22;13482;48.234;13.006;2024-02-15T04:10:15;8.90;72.20
25616;DHT22;13482;48.234;13.006;2024-02-15T04:12:45;8.90;72.30
25616;DHT22;13482;48.234;13.006;2024-02-15T04:15:13;8.90;72.40
25616;DHT22;13482;48.234;13.006;2024-02-15T04:17:45;8.90;72.40
25616;DHT22;13482;48.234;13.006;2024-02-15T04:20:14;9.00;72.40
25616;DHT22;13482;48.234;13.006;2024-02-15T04:22:43;9.00;72.40
25616;DHT22;13482;48.234;13.006;2024-02-15T04:25:11;9.00;72.40
25616;DHT22;13482;48.234;13.006;2024-02-15T04:27:45;9.00;72.50
25616;DHT22;13482;48.234;13.006;2024-02-15T04:30:14;9.00;72.30
25616;DHT22;13482;48.234;13.006;2024-02-15T04:32:45;9.00;72.30
25616;DHT22;13482;48.234;13.006;2024-02-15T04:35:14;9.00;72.30
25616;DHT22;13482;48.234;13.006;2024-02-15T04:37:42;9.00;72.40
25616;DHT22;13482;48.234;13.006;2024-02-15T04:40:10;9.00;72.40
25616;DHT22;13482;48.234;13.006;2024-02-15T04:42:40;9.00;72.50
25616;DHT22;13482;48.234;13.006;2024-02-15T04:45:10;9.00;72.50
25616;DHT22;13482;48.234;13.006;2024-02-15T04:47:41;9.00;72.60
25616;DHT22;13482;48.234;13.006;2024-02-15T04:50:09;9.00;72.50
25616;DHT22;13482;48.234;13.006;2024-02-15T04:52:37;9.00;72.50
25616;DHT22;13482;48.234;13.006;2024-02-15T04:55:05;9.00;72.70
25616;DHT22;13482;48.234;13.006;2024-02-15T04:57:33;9.10;72.70
25616;DHT22;13482;48.234;13.006;2024-02-15T05:00:04;9.10;72.70
25616;DHT22;13482;48.234;13.006;2024-02-15T05:02:38;9.10;72.80
25616;DHT22;13482;48.234;13.006;2024-02-15T05:05:12;9.10;72.70
25616;DHT22;13482;48.234;13.006;2024-02-15T05:07:42;9.10;72.80
25616;DHT22;13482;48.234;13.006;2024-02-15T05:10:10;9.10;72.80
25616;DHT22;13482;48.234;13.006;2024-02-15T05:12:38;9.20;72.80
25616;DHT22;13482;48.234;13.006;2024-02-15T05:15:08;9.20;72.80
25616;DHT22;13482;48.234;13.006;2024-02-15T05:17:40;9.20;72.80
25616;DHT22;13482;48.234;13.006;2024-02-15T05:20:10;9.20;72.80
25616;DHT22;13482;48.234;13.006;2024-02-15T05:22:40;9.20;72.90
25616;DHT22;13482;48.234;13.006;2024-02-15T05:25:17;9.30;73.20
25616;DHT22;13482;48.234;13.006;2024-02-15T05:27:56;9.30;72.40
25616;DHT22;13482;48.234;13.006;2024-02-15T05:30:27;9.30;72.50
25616;DHT22;13482;48.234;13.006;2024-02-15T05:32:56;9.20;72.80
25616;DHT22;13482;48.234;13.006;2024-02-15T05:35:24;9.20;72.80
25616;DHT22;13482;48.234;13.006;2024-02-15T05:37:54;9.20;73.00
25616;DHT22;13482;48.234;13.006;2024-02-15T05:40:21;9.20;73.00
25616;DHT22;13482;48.234;13.006;2024-02-15T05:42:55;9.20;73.00
25616;DHT22;13482;48.234;13.006;2024-02-15T05:47:57;9.30;73.00
25616;DHT22;13482;48.234;13.006;2024-02-15T05:50:25;9.30;73.00
25616;DHT22;13482;48.234;13.006;2024-02-15T05:52:56;9.30;73.10
25616;DHT22;13482;48.234;13.006;2024-02-15T05:55:25;9.30;73.00
25616;DHT22;13482;48.234;13.006;2024-02-15T05:57:53;9.40;73.00
25616;DHT22;13482;48.234;13.006;2024-02-15T06:00:21;9.40;73.00
25616;DHT22;13482;48.234;13.006;2024-02-15T06:02:50;9.40;73.00
25616;DHT22;13482;48.234;13.006;2024-02-15T06:05:20;9.40;73.00
25616;DHT22;13482;48.234;13.006;2024-02-15T06:07:47;9.40;73.00
25616;DHT22;13482;48.234;13.006;2024-02-15T06:10:15;9.40;73.00
25616;DHT22;13482;48.234;13.006;2024-02-15T06:12:43;9.40;73.00
25616;DHT22;13482;48.234;13.006;2024-02-15T06:15:11;9.40;73.00
25616;DHT22;13482;48.234;13.006;2024-02-15T06:17:46;9.40;73.00
25616;DHT22;13482;48.234;13.006;2024-02-15T06:20:15;9.40;73.00
25616;DHT22;13482;48.234;13.006;2024-02-15T06:22:46;9.40;73.00
25616;DHT22;13482;48.234;13.006;2024-02-15T06:25:14;9.40;73.00
25616;DHT22;13482;48.234;13.006;2024-02-15T06:27:48;9.40;73.00
25616;DHT22;13482;48.234;13.006;2024-02-15T06:30:18;9.40;73.00
25616;DHT22;13482;48.234;13.006;2024-02-15T06:33:21;9.40;73.00
25616;DHT22;13482;48.234;13.006;2024-02-15T06:36:08;9.40;73.00
25616;DHT22;13482;48.234;13.006;2024-02-15T06:38:54;9.40;72.90
25616;DHT22;13482;48.234;13.006;2024-02-15T06:41:40;9.40;73.00
25616;DHT22;13482;48.234;13.006;2024-02-15T06:44:08;9.40;73.00
25616;DHT22;13482;48.234;13.006;2024-02-15T06:46:36;9.40;73.10
25616;DHT22;13482;48.234;13.006;2024-02-15T06:49:04;9.40;73.10
25616;DHT22;13482;48.234;13.006;2024-02-15T06:51:32;9.40;73.10
25616;DHT22;13482;48.234;13.006;2024-02-15T06:54:00;9.40;73.10
25616;DHT22;13482;48.234;13.006;2024-02-15T06:56:28;9.40;73.20
25616;DHT22;13482;48.234;13.006;2024-02-15T06:58:57;9.40;73.20
25616;DHT22;13482;48.234;13.006;2024-02-15T07:01:25;9.40;73.20
25616;DHT22;13482;48.234;13.006;2024-02-15T07:03:53;9.50;73.20
25616;DHT22;13482;48.234;13.006;2024-02-15T07:06:25;9.50;73.20
25616;DHT22;13482;48.234;13.006;2024-02-15T07:08:55;9.50;73.20
25616;DHT22;13482;48.234;13.006;2024-02-15T07:11:24;9.50;73.30
25616;DHT22;13482;48.234;13.006;2024-02-15T07:13:51;9.50;73.30
25616;DHT22;13482;48.234;13.006;2024-02-15T07:16:22;9.60;73.40
25616;DHT22;13482;48.234;13.006;2024-02-15T07:18:50;9.60;73.40
25616;DHT22;13482;48.234;13.006;2024-02-15T07:21:20;9.60;73.50
25616;DHT22;13482;48.234;13.006;2024-02-15T07:23:54;9.70;73.50
25616;DHT22;13482;48.234;13.006;2024-02-15T07:26:24;9.70;73.60
25616;DHT22;13482;48.234;13.006;2024-02-15T07:28:53;9.70;73.60
25616;DHT22;13482;48.234;13.006;2024-02-15T07:31:21;9.80;73.60
25616;DHT22;13482;48.234;13.006;2024-02-15T07:33:51;9.80;73.70
25616;DHT22;13482;48.234;13.006;2024-02-15T07:36:20;9.90;73.70
25616;DHT22;13482;48.234;13.006;2024-02-15T07:38:51;9.90;73.80
25616;DHT22;13482;48.234;13.006;2024-02-15T07:41:23;9.90;73.90
25616;DHT22;13482;48.234;13.006;2024-02-15T07:43:52;10.00;73.80
25616;DHT22;13482;48.234;13.006;2024-02-15T07:46:22;10.00;73.80
25616;DHT22;13482;48.234;13.006;2024-02-15T07:48:51;10.10;73.80
25616;DHT22;13482;48.234;13.006;2024-02-15T07:51:21;10.10;74.00
25616;DHT22;13482;48.234;13.006;2024-02-15T07:53:50;10.20;73.90
25616;DHT22;13482;48.234;13.006;2024-02-15T07:56:19;10.30;74.00
25616;DHT22;13482;48.234;13.006;2024-02-15T07:58:48;10.30;74.00
25616;DHT22;13482;48.234;13.006;2024-02-15T08:01:21;10.40;74.00
25616;DHT22;13482;48.234;13.006;2024-02-15T08:03:50;10.50;74.00
25616;DHT22;13482;48.234;13.006;2024-02-15T08:06:21;10.50;73.90
25616;DHT22;13482;48.234;13.006;2024-02-15T08:08:53;10.60;74.20
25616;DHT22;13482;48.234;13.006;2024-02-15T08:11:21;10.70;73.70
25616;DHT22;13482;48.234;13.006;2024-02-15T08:13:49;10.80;73.80
25616;DHT22;13482;48.234;13.006;2024-02-15T08:16:22;10.80;74.00
25616;DHT22;13482;48.234;13.006;2024-02-15T08:18:50;10.90;74.10
25616;DHT22;13482;48.234;13.006;2024-02-15T08:21:29;11.00;74.20
25616;DHT22;13482;48.234;13.006;2024-02-15T08:24:00;11.10;74.30
25616;DHT22;13482;48.234;13.006;2024-02-15T08:26:33;11.20;74.30
25616;DHT22;13482;48.234;13.006;2024-02-15T08:29:05;11.30;74.40
25616;DHT22;13482;48.234;13.006;2024-02-15T08:31:33;11.40;74.50
25616;DHT22;13482;48.234;13.006;2024-02-15T08:34:02;11.50;74.30
25616;DHT22;13482;48.234;13.006;2024-02-15T08:36:33;11.60;74.20
25616;DHT22;13482;48.234;13.006;2024-02-15T08:39:01;11.70;74.10
25616;DHT22;13482;48.234;13.006;2024-02-15T08:41:28;11.80;74.00
25616;DHT22;13482;48.234;13.006;2024-02-15T08:43:56;11.90;73.80
25616;DHT22;13482;48.234;13.006;2024-02-15T08:46:25;12.00;73.70
25616;DHT22;13482;48.234;13.006;2024-02-15T08:48:54;12.10;73.60
25616;DHT22;13482;48.234;13.006;2024-02-15T08:51:22;12.20;73.60
25616;DHT22;13482;48.234;13.006;2024-02-15T08:53:51;12.30;73.90
25616;DHT22;13482;48.234;13.006;2024-02-15T08:56:19;12.40;73.90
25616;DHT22;13482;48.234;13.006;2024-02-15T08:58:46;12.50;73.80
25616;DHT22;13482;48.234;13.006;2024-02-15T09:01:14;12.60;73.80
25616;DHT22;13482;48.234;13.006;2024-02-15T09:03:43;12.80;74.00
25616;DHT22;13482;48.234;13.006;2024-02-15T09:06:12;12.90;73.90
25616;DHT22;13482;48.234;13.006;2024-02-15T09:08:40;13.10;73.70
25616;DHT22;13482;48.234;13.006;2024-02-15T09:11:08;13.20;73.80
25616;DHT22;13482;48.234;13.006;2024-02-15T09:13:39;13.40;73.80
25616;DHT22;13482;48.234;13.006;2024-02-15T09:16:07;13.60;73.80
25616;DHT22;13482;48.234;13.006;2024-02-15T09:18:34;13.70;73.70
25616;DHT22;13482;48.234;13.006;2024-02-15T09:21:02;13.90;73.70
25616;DHT22;13482;48.234;13.006;2024-02-15T09:23:32;14.10;73.50
25616;DHT22;13482;48.234;13.006;2024-02-15T09:25:59;14.30;73.50
25616;DHT22;13482;48.234;13.006;2024-02-15T09:28:27;14.40;73.60
25616;DHT22;13482;48.234;13.006;2024-02-15T09:30:54;14.70;73.40
25616;DHT22;13482;48.234;13.006;2024-02-15T09:33:26;14.80;72.90
25616;DHT22;13482;48.234;13.006;2024-02-15T09:35:54;15.00;72.60
25616;DHT22;13482;48.234;13.006;2024-02-15T09:38:22;15.20;71.90
25616;DHT22;13482;48.234;13.006;2024-02-15T09:40:52;15.30;71.30
25616;DHT22;13482;48.234;13.006;2024-02-15T09:43:20;15.40;71.00
25616;DHT22;13482;48.234;13.006;2024-02-15T09:45:48;15.40;71.00
25616;DHT22;13482;48.234;13.006;2024-02-15T09:48:18;15.50;71.20
25616;DHT22;13482;48.234;13.006;2024-02-15T09:50:52;15.60;71.10
25616;DHT22;13482;48.234;13.006;2024-02-15T09:53:21;15.70;70.70
25616;DHT22;13482;48.234;13.006;2024-02-15T09:55:50;15.90;69.50
25616;DHT22;13482;48.234;13.006;2024-02-15T09:58:19;15.90;70.30
25616;DHT22;13482;48.234;13.006;2024-02-15T10:00:50;16.00;70.50
25616;DHT22;13482;48.234;13.006;2024-02-15T10:03:19;16.10;70.70
25616;DHT22;13482;48.234;13.006;2024-02-15T10:05:49;16.20;70.70
25616;DHT22;13482;48.234;13.006;2024-02-15T10:08:17;16.30;71.20
25616;DHT22;13482;48.234;13.006;2024-02-15T10:10:44;16.50;71.30
25616;DHT22;13482;48.234;13.006;2024-02-15T10:13:13;16.60;70.90
25616;DHT22;13482;48.234;13.006;2024-02-15T10:15:40;16.80;70.80
25616;DHT22;13482;48.234;13.006;2024-02-15T10:18:09;16.90;70.70
25616;DHT22;13482;48.234;13.006;2024-02-15T10:20:40;17.10;70.50
25616;DHT22;13482;48.234;13.006;2024-02-15T10:23:14;17.20;70.60
25616;DHT22;13482;48.234;13.006;2024-02-15T10:25:46;17.40;70.60
25616;DHT22;13482;48.234;13.006;2024-02-15T10:28:20;17.50;70.20
25616;DHT22;13482;48.234;13.006;2024-02-15T10:30:52;17.70;70.10
25616;DHT22;13482;48.234;13.006;2024-02-15T10:33:29;17.80;70.20
25616;DHT22;13482;48.234;13.006;2024-02-15T10:36:08;18.00;69.90
25616;DHT22;13482;48.234;13.006;2024-02-15T10:38:38;18.10;69.30
25616;DHT22;13482;48.234;13.006;2024-02-15T10:41:07;18.30;69.80
25616;DHT22;13482;48.234;13.006;2024-02-15T10:43:39;18.40;69.40
25616;DHT22;13482;48.234;13.006;2024-02-15T10:46:13;18.50;69.10
25616;DHT22;13482;48.234;13.006;2024-02-15T10:48:41;18.60;68.80
25616;DHT22;13482;48.234;13.006;2024-02-15T10:51:13;18.70;68.60
25616;DHT22;13482;48.234;13.006;2024-02-15T10:53:48;18.90;68.40
25616;DHT22;13482;48.234;13.006;2024-02-15T10:56:27;19.00;68.30
25616;DHT22;13482;48.234;13.006;2024-02-15T10:59:12;19.10;68.20
25616;DHT22;13482;48.234;13.006;2024-02-15T11:01:46;19.20;68.10
25616;DHT22;13482;48.234;13.006;2024-02-15T11:04:16;19.30;68.00
25616;DHT22;13482;48.234;13.006;2024-02-15T11:06:55;19.40;67.90
25616;DHT22;13482;48.234;13.006;2024-02-15T11:09:23;19.60;67.80
25616;DHT22;13482;48.234;13.006;2024-02-15T11:11:55;19.60;67.80
25616;DHT22;13482;48.234;13.006;2024-02-15T11:14:28;19.70;67.50
25616;DHT22;13482;48.234;13.006;2024-02-15T11:16:59;19.90;67.10
25616;DHT22;13482;48.234;13.006;2024-02-15T11:22:17;20.00;67.00
25616;DHT22;13482;48.234;13.006;2024-02-15T11:24:52;20.10;66.60
25616;DHT22;13482;48.234;13.006;2024-02-15T11:27:27;20.20;66.00
25616;DHT22;13482;48.234;13.006;2024-02-15T11:30:00;20.30;65.80
25616;DHT22;13482;48.234;13.006;2024-02-15T11:32:44;20.40;66.20
25616;DHT22;13482;48.234;13.006;2024-02-15T11:35:24;20.50;66.00
25616;DHT22;13482;48.234;13.006;2024-02-15T11:37:57;20.50;66.40
25616;DHT22;13482;48.234;13.006;2024-02-15T11:40:28;20.60;66.40
25616;DHT22;13482;48.234;13.006;2024-02-15T11:46:25;20.80;64.90
25616;DHT22;13482;48.234;13.006;2024-02-15T11:48:58;20.90;66.10
25616;DHT22;13482;48.234;13.006;2024-02-15T11:51:36;20.90;65.90
25616;DHT22;13482;48.234;13.006;2024-02-15T11:54:08;21.00;65.80
25616;DHT22;13482;48.234;13.006;2024-02-15T11:56:51;21.10;65.70
25616;DHT22;13482;48.234;13.006;2024-02-15T11:59:41;21.20;64.70
25616;DHT22;13482;48.234;13.006;2024-02-15T12:02:42;21.30;65.00
25616;DHT22;13482;48.234;13.006;2024-02-15T12:05:28;21.40;65.60
25616;DHT22;13482;48.234;13.006;2024-02-15T12:08:15;21.50;65.40
25616;DHT22;13482;48.234;13.006;2024-02-15T12:11:01;21.60;65.10
25616;DHT22;13482;48.234;13.006;2024-02-15T12:13:51;21.60;65.20
25616;DHT22;13482;48.234;13.006;2024-02-15T12:16:37;21.70;64.80
25616;DHT22;13482;48.234;13.006;2024-02-15T12:19:23;21.80;65.00
25616;DHT22;13482;48.234;13.006;2024-02-15T12:21:52;21.90;64.90
25616;DHT22;13482;48.234;13.006;2024-02-15T12:24:20;21.90;64.80
25616;DHT22;13482;48.234;13.006;2024-02-15T12:27:00;22.00;64.60
25616;DHT22;13482;48.234;13.006;2024-02-15T12:29:31;22.10;64.00
25616;DHT22;13482;48.234;13.006;2024-02-15T12:31:59;22.10;64.50
25616;DHT22;13482;48.234;13.006;2024-02-15T12:34:27;22.20;64.30
25616;DHT22;13482;48.234;13.006;2024-02-15T12:37:17;22.20;64.00
25616;DHT22;13482;48.234;13.006;2024-02-15T12:39:45;22.30;62.70
25616;DHT22;13482;48.234;13.006;2024-02-15T12:42:13;22.30;63.80
25616;DHT22;13482;48.234;13.006;2024-02-15T12:44:45;22.40;63.60
25616;DHT22;13482;48.234;13.006;2024-02-15T12:47:21;22.40;63.20
25616;DHT22;13482;48.234;13.006;2024-02-15T12:49:49;22.40;63.10
25616;DHT22;13482;48.234;13.006;2024-02-15T12:52:38;22.40;63.20
25616;DHT22;13482;48.234;13.006;2024-02-15T12:55:20;22.50;61.80
25616;DHT22;13482;48.234;13.006;2024-02-15T12:57:53;22.50;62.40
25616;DHT22;13482;48.234;13.006;2024-02-15T13:00:27;22.40;63.00
25616;DHT22;13482;48.234;13.006;2024-02-15T13:03:02;22.40;62.80
25616;DHT22;13482;48.234;13.006;2024-02-15T13:05:31;22.40;62.70
25616;DHT22;13482;48.234;13.006;2024-02-15T13:08:00;22.40;62.60
25616;DHT22;13482;48.234;13.006;2024-02-15T13:10:32;22.40;62.50
25616;DHT22;13482;48.234;13.006;2024-02-15T13:13:00;22.40;62.30
25616;DHT22;13482;48.234;13.006;2024-02-15T13:15:28;22.40;62.20
25616;DHT22;13482;48.234;13.006;2024-02-15T13:18:01;22.30;62.20
25616;DHT22;13482;48.234;13.006;2024-02-15T13:20:33;22.30;62.20
25616;DHT22;13482;48.234;13.006;2024-02-15T13:23:06;22.30;62.10
25616;DHT22;13482;48.234;13.006;2024-02-15T13:25:38;22.20;62.10
25616;DHT22;13482;48.234;13.006;2024-02-15T13:28:11;22.20;62.20
25616;DHT22;13482;48.234;13.006;2024-02-15T13:30:41;22.20;62.20
25616;DHT22;13482;48.234;13.006;2024-02-15T13:33:14;22.20;62.10
25616;DHT22;13482;48.234;13.006;2024-02-15T13:35:44;22.10;62.10
25616;DHT22;13482;48.234;13.006;2024-02-15T13:38:12;22.10;62.10
25616;DHT22;13482;48.234;13.006;2024-02-15T13:40:51;22.10;62.30
25616;DHT22;13482;48.234;13.006;2024-02-15T13:43:23;22.10;62.20
25616;DHT22;13482;48.234;13.006;2024-02-15T13:45:50;22.10;62.30
25616;DHT22;13482;48.234;13.006;2024-02-15T13:48:20;22.20;62.20
25616;DHT22;13482;48.234;13.006;2024-02-15T13:50:51;22.20;62.10
25616;DHT22;13482;48.234;13.006;2024-02-15T13:53:22;22.20;62.00
25616;DHT22;13482;48.234;13.006;2024-02-15T13:55:52;22.20;62.20
25616;DHT22;13482;48.234;13.006;2024-02-15T13:58:19;22.20;62.40
25616;DHT22;13482;48.234;13.006;2024-02-15T14:00:48;22.30;62.20
25616;DHT22;13482;48.234;13.006;2024-02-15T14:03:16;22.30;62.10
25616;DHT22;13482;48.234;13.006;2024-02-15T14:05:45;22.40;62.20
25616;DHT22;13482;48.234;13.006;2024-02-15T14:08:15;22.40;62.00
25616;DHT22;13482;48.234;13.006;2024-02-15T14:10:43;22.40;61.90
25616;DHT22;13482;48.234;13.006;2024-02-15T14:13:11;22.50;61.90
25616;DHT22;13482;48.234;13.006;2024-02-15T14:15:40;22.50;62.00
25616;DHT22;13482;48.234;13.006;2024-02-15T14:18:12;22.50;61.90
25616;DHT22;13482;48.234;13.006;2024-02-15T14:20:46;22.60;61.50
25616;DHT22;13482;48.234;13.006;2024-02-15T14:23:15;22.60;61.60
25616;DHT22;13482;48.234;13.006;2024-02-15T14:25:43;22.70;61.50
25616;DHT22;13482;48.234;13.006;2024-02-15T14:28:17;22.70;61.60
25616;DHT22;13482;48.234;13.006;2024-02-15T14:30:45;22.80;61.70
25616;DHT22;13482;48.234;13.006;2024-02-15T14:33:31;22.90;61.90
25616;DHT22;13482;48.234;13.006;2024-02-15T14:36:01;23.00;62.00
25616;DHT22;13482;48.234;13.006;2024-02-15T14:38:31;23.10;61.60
25616;DHT22;13482;48.234;13.006;2024-02-15T14:41:02;23.20;61.60
25616;DHT22;13482;48.234;13.006;2024-02-15T14:43:35;23.40;61.70
25616;DHT22;13482;48.234;13.006;2024-02-15T14:46:02;23.50;61.70
25616;DHT22;13482;48.234;13.006;2024-02-15T14:48:32;23.60;61.30
25616;DHT22;13482;48.234;13.006;2024-02-15T14:51:01;23.80;61.00
25616;DHT22;13482;48.234;13.006;2024-02-15T14:53:30;23.80;60.60
25616;DHT22;13482;48.234;13.006;2024-02-15T14:55:57;23.90;60.30
25616;DHT22;13482;48.234;13.006;2024-02-15T14:58:25;23.90;60.20
25616;DHT22;13482;48.234;13.006;2024-02-15T15:00:54;23.90;60.20
25616;DHT22;13482;48.234;13.006;2024-02-15T15:03:24;23.90;60.00
25616;DHT22;13482;48.234;13.006;2024-02-15T15:05:54;23.90;59.70
25616;DHT22;13482;48.234;13.006;2024-02-15T15:08:40;23.90;59.50
25616;DHT22;13482;48.234;13.006;2024-02-15T15:11:27;23.80;59.40
25616;DHT22;13482;48.234;13.006;2024-02-15T15:14:14;23.80;59.40
25616;DHT22;13482;48.234;13.006;2024-02-15T15:16:41;23.70;59.60
25616;DHT22;13482;48.234;13.006;2024-02-15T15:19:09;23.70;59.60
25616;DHT22;13482;48.234;13.006;2024-02-15T15:21:38;23.80;59.60
25616;DHT22;13482;48.234;13.006;2024-02-15T15:24:06;23.80;59.50
25616;DHT22;13482;48.234;13.006;2024-02-15T15:26:34;23.80;59.40
25616;DHT22;13482;48.234;13.006;2024-02-15T15:29:01;23.80;59.40
25616;DHT22;13482;48.234;13.006;2024-02-15T15:31:29;23.80;59.30
25616;DHT22;13482;48.234;13.006;2024-02-15T15:33:58;23.80;59.20
25616;DHT22;13482;48.234;13.006;2024-02-15T15:36:27;23.80;58.90
25616;DHT22;13482;48.234;13.006;2024-02-15T15:38:58;23.80;58.60
25616;DHT22;13482;48.234;13.006;2024-02-15T15:41:26;23.70;58.50
25616;DHT22;13482;48.234;13.006;2024-02-15T15:43:54;23.60;58.20
25616;DHT22;13482;48.234;13.006;2024-02-15T15:46:22;23.50;58.00
25616;DHT22;13482;48.234;13.006;2024-02-15T15:48:49;23.30;57.90
25616;DHT22;13482;48.234;13.006;2024-02-15T15:51:17;23.20;58.10